createdAt,value
2018-04-06T00:01:46.366Z,8.30
2018-04-06T00:04:13.780Z,9.20
2018-04-06T00:06:41.181Z,8.30
2018-04-06T00:09:08.598Z,8.43
2018-04-06T00:11:36.011Z,12.13
2018-04-06T00:14:03.410Z,10.30
2018-04-06T00:16:30.833Z,12.33
2018-04-06T00:18:58.221Z,14.57
2018-04-06T00:21:25.666Z,10.93
2018-04-06T00:23:53.053Z,12.60
2018-04-06T00:26:20.819Z,13.00
2018-04-06T00:28:48.230Z,15.13
2018-04-06T00:31:15.642Z,12.37
2018-04-06T00:33:43.161Z,13.47
2018-04-06T00:36:10.583Z,7.97
2018-04-06T00:38:38.030Z,8.53
2018-04-06T00:41:06.353Z,15.27
2018-04-06T00:43:33.843Z,12.33
2018-04-06T00:46:01.381Z,10.07
2018-04-06T00:48:28.928Z,13.93
2018-04-06T00:50:56.438Z,15.93
2018-04-06T00:53:35.751Z,14.00
2018-04-06T00:56:03.263Z,13.23
2018-04-06T00:58:30.669Z,15.20
2018-04-06T01:00:58.091Z,15.20
2018-04-06T01:03:25.481Z,14.37
2018-04-06T01:05:52.889Z,14.80
2018-04-06T01:08:20.320Z,12.40
2018-04-06T01:10:47.718Z,20.73
2018-04-06T01:13:15.133Z,17.43
2018-04-06T01:15:42.546Z,11.83
2018-04-06T01:18:09.964Z,12.80
2018-04-06T01:20:37.370Z,10.87
2018-04-06T01:23:04.786Z,10.47
2018-04-06T01:25:32.174Z,9.77
2018-04-06T01:27:59.598Z,9.80
2018-04-06T01:30:26.994Z,12.43
2018-04-06T01:32:54.405Z,8.50
2018-04-06T01:35:21.806Z,16.20
2018-04-06T01:37:49.220Z,7.47
2018-04-06T01:40:16.608Z,6.93
2018-04-06T01:42:44.034Z,12.13
2018-04-06T01:45:11.429Z,11.70
2018-04-06T01:47:38.846Z,6.87
2018-04-06T01:50:06.241Z,9.10
2018-04-06T01:52:33.658Z,9.87
2018-04-06T01:55:01.062Z,13.60
2018-04-06T01:57:28.483Z,9.83
2018-04-06T01:59:55.890Z,15.57
2018-04-06T02:02:23.293Z,11.17
2018-04-06T02:04:50.695Z,21.60
2018-04-06T02:07:18.103Z,9.90
2018-04-06T02:09:45.511Z,12.30
2018-04-06T02:12:12.930Z,13.93
2018-04-06T02:14:40.333Z,17.37
2018-04-06T02:17:07.745Z,9.87
2018-04-06T02:19:35.154Z,12.13
2018-04-06T02:22:02.557Z,13.07
2018-04-06T02:24:30.036Z,16.53
2018-04-06T02:26:57.391Z,11.57
2018-04-06T02:29:24.790Z,10.93
2018-04-06T02:31:52.206Z,18.93
2018-04-06T02:34:19.607Z,11.40
2018-04-06T02:36:47.018Z,10.40
2018-04-06T02:39:14.414Z,7.17
2018-04-06T02:41:41.980Z,10.23
2018-04-06T02:44:09.404Z,12.20
2018-04-06T02:46:36.800Z,9.10
2018-04-06T02:49:04.222Z,13.40
2018-04-06T02:51:31.677Z,9.90
2018-04-06T02:53:59.121Z,16.43
2018-04-06T02:56:26.542Z,13.60
2018-04-06T02:58:53.955Z,21.40
2018-04-06T03:01:21.361Z,12.33
2018-04-06T03:03:49.129Z,13.60
2018-04-06T03:06:16.537Z,11.60
2018-04-06T03:08:43.938Z,13.47
2018-04-06T03:11:11.361Z,19.50
2018-04-06T03:13:38.805Z,16.20
2018-04-06T03:16:06.202Z,14.00
2018-04-06T03:18:33.617Z,11.70
2018-04-06T03:21:01.019Z,14.53
2018-04-06T03:23:28.433Z,13.53
2018-04-06T03:25:55.836Z,18.00
2018-04-06T03:28:23.249Z,23.00
2018-04-06T03:30:50.665Z,20.50
2018-04-06T03:33:18.076Z,19.10
2018-04-06T03:35:45.482Z,16.10
2018-04-06T03:38:12.902Z,18.00
2018-04-06T03:40:40.300Z,14.27
2018-04-06T03:43:07.722Z,15.00
2018-04-06T03:45:35.397Z,17.60
2018-04-06T03:48:02.802Z,13.53
2018-04-06T03:50:30.197Z,12.23
2018-04-06T03:52:57.641Z,11.57
2018-04-06T03:55:25.057Z,11.73
2018-04-06T03:57:52.454Z,19.27
2018-04-06T04:00:19.870Z,17.97
2018-04-06T04:02:47.268Z,24.60
2018-04-06T04:05:14.679Z,10.07
2018-04-06T04:07:42.077Z,14.10
2018-04-06T04:10:09.489Z,15.77
2018-04-06T04:12:36.898Z,22.87
2018-04-06T04:15:04.310Z,16.33
2018-04-06T04:17:31.705Z,18.53
2018-04-06T04:19:59.121Z,24.60
2018-04-06T04:22:26.530Z,20.20
2018-04-06T04:24:53.937Z,19.97
2018-04-06T04:27:21.346Z,18.67
2018-04-06T04:29:48.765Z,11.57
2018-04-06T04:32:16.170Z,15.87
2018-04-06T04:34:44.180Z,17.17
2018-04-06T04:37:11.586Z,12.50
2018-04-06T04:39:38.985Z,15.83
2018-04-06T04:42:06.400Z,20.00
2018-04-06T04:44:33.849Z,14.50
2018-04-06T04:47:01.245Z,14.97
2018-04-06T04:49:28.649Z,16.97
2018-04-06T04:51:56.053Z,23.47
2018-04-06T04:54:23.480Z,17.80
2018-04-06T04:56:50.880Z,22.87
2018-04-06T04:59:18.306Z,20.80
2018-04-06T05:01:45.715Z,28.43
2018-04-06T05:04:13.119Z,18.20
2018-04-06T05:06:40.545Z,19.20
2018-04-06T05:09:07.965Z,19.33
2018-04-06T05:11:35.382Z,20.90
2018-04-06T05:14:02.778Z,25.00
2018-04-06T05:16:30.196Z,17.07
2018-04-06T05:18:57.607Z,20.10
2018-04-06T05:21:25.026Z,24.43
2018-04-06T05:23:52.430Z,20.63
2018-04-06T05:26:19.843Z,10.67
2018-04-06T05:28:47.244Z,14.33
2018-04-06T05:31:14.661Z,20.73
2018-04-06T05:33:42.065Z,19.17
2018-04-06T05:36:09.497Z,22.60
2018-04-06T05:38:36.907Z,24.23
2018-04-06T05:41:04.326Z,15.50
2018-04-06T05:43:31.733Z,15.47
2018-04-06T05:45:59.155Z,19.77
2018-04-06T05:48:26.566Z,20.83
2018-04-06T05:50:53.980Z,22.33
2018-04-06T05:53:21.442Z,13.80
2018-04-06T05:55:48.902Z,18.57
2018-04-06T05:58:16.334Z,16.20
2018-04-06T06:00:43.724Z,15.47
2018-04-06T06:03:11.126Z,17.27
2018-04-06T06:05:38.578Z,21.03
2018-04-06T06:08:05.980Z,13.47
2018-04-06T06:10:33.394Z,16.40
2018-04-06T06:13:00.798Z,19.77
2018-04-06T06:15:28.213Z,33.13
2018-04-06T06:17:55.618Z,17.93
2018-04-06T06:20:23.029Z,16.83
2018-04-06T06:22:50.429Z,16.63
2018-04-06T06:25:17.843Z,20.90
2018-04-06T06:27:45.246Z,22.03
2018-04-06T06:30:12.653Z,25.70
2018-04-06T06:32:40.098Z,21.60
2018-04-06T06:35:07.526Z,20.57
2018-04-06T06:37:34.934Z,13.77
2018-04-06T06:40:02.366Z,13.90
2018-04-06T06:42:29.780Z,17.63
2018-04-06T06:44:57.531Z,17.37
2018-04-06T06:47:24.938Z,13.10
2018-04-06T06:49:52.351Z,15.87
2018-04-06T06:52:20.136Z,19.10
2018-04-06T06:54:47.543Z,16.07
2018-04-06T06:57:14.949Z,16.57
2018-04-06T06:59:42.368Z,23.50
2018-04-06T07:02:09.790Z,13.43
2018-04-06T07:04:37.202Z,19.23
2018-04-06T07:07:04.629Z,16.27
2018-04-06T07:09:32.041Z,17.00
2018-04-06T07:11:59.474Z,19.37
2018-04-06T07:14:26.930Z,18.07
2018-04-06T07:16:54.350Z,16.13
2018-04-06T07:19:21.766Z,14.00
2018-04-06T07:21:49.189Z,18.53
2018-04-06T07:24:16.612Z,16.90
2018-04-06T07:26:44.048Z,16.97
2018-04-06T07:29:11.459Z,16.87
2018-04-06T07:31:38.872Z,17.63
2018-04-06T07:34:06.273Z,18.30
2018-04-06T07:36:33.686Z,20.67
2018-04-06T07:39:01.110Z,15.17
2018-04-06T07:41:28.541Z,18.37
2018-04-06T07:43:55.952Z,22.63
2018-04-06T07:46:23.364Z,16.43
2018-04-06T07:48:50.793Z,15.40
2018-04-06T07:51:18.208Z,17.37
2018-04-06T07:53:45.622Z,23.17
2018-04-06T07:56:13.026Z,16.47
2018-04-06T07:58:40.441Z,15.30
2018-04-06T08:01:07.850Z,23.80
2018-04-06T08:03:35.265Z,19.33
2018-04-06T08:06:02.678Z,17.13
2018-04-06T08:08:30.087Z,15.93
2018-04-06T08:10:57.498Z,16.43
2018-04-06T08:13:24.979Z,21.97
2018-04-06T08:15:52.333Z,16.47
2018-04-06T08:18:19.756Z,19.13
2018-04-06T08:20:47.161Z,17.77
2018-04-06T08:23:14.690Z,19.40
2018-04-06T08:25:42.153Z,17.57
2018-04-06T08:28:09.562Z,13.93
2018-04-06T08:30:37.006Z,16.40
2018-04-06T08:33:04.427Z,17.43
2018-04-06T08:35:31.829Z,23.70
2018-04-06T08:37:59.258Z,19.57
2018-04-06T08:40:26.662Z,21.13
2018-04-06T08:42:54.085Z,15.10
2018-04-06T08:45:21.489Z,21.23
2018-04-06T08:47:48.944Z,14.47
2018-04-06T08:50:16.346Z,16.43
2018-04-06T08:52:43.769Z,14.03
2018-04-06T08:55:11.170Z,13.90
2018-04-06T08:57:38.585Z,12.17
2018-04-06T09:00:05.998Z,14.10
2018-04-06T09:02:33.416Z,11.07
2018-04-06T09:05:00.817Z,9.83
2018-04-06T09:07:28.285Z,11.77
2018-04-06T09:09:55.679Z,13.47
2018-04-06T09:12:23.093Z,12.00
2018-04-06T09:14:50.505Z,12.33
2018-04-06T09:17:17.942Z,13.17
2018-04-06T09:19:45.346Z,11.03
2018-04-06T09:22:12.772Z,10.43
2018-04-06T09:24:40.171Z,16.77
2018-04-06T09:27:07.594Z,14.97
2018-04-06T09:29:35.002Z,18.63
2018-04-06T09:32:02.441Z,15.43
2018-04-06T09:34:29.881Z,13.53
2018-04-06T09:36:57.413Z,11.80
2018-04-06T09:39:24.822Z,13.20
2018-04-06T09:41:52.276Z,15.63
2018-04-06T09:44:19.742Z,12.37
2018-04-06T09:46:47.150Z,13.57
2018-04-06T09:49:14.562Z,17.00
2018-04-06T09:51:41.998Z,13.80
2018-04-06T09:54:09.438Z,11.97
2018-04-06T09:56:36.837Z,9.30
2018-04-06T09:59:04.250Z,11.70
2018-04-06T10:01:35.649Z,9.53
2018-04-06T10:04:03.057Z,11.77
2018-04-06T10:06:30.561Z,10.17
2018-04-06T10:08:57.981Z,8.17
2018-04-06T10:11:25.401Z,16.83
2018-04-06T10:13:52.805Z,8.07
2018-04-06T10:16:20.246Z,8.37
2018-04-06T10:18:47.634Z,8.83
2018-04-06T10:21:15.051Z,9.20
2018-04-06T10:23:42.454Z,9.43
2018-04-06T10:26:09.893Z,10.60
2018-04-06T10:28:37.307Z,14.50
2018-04-06T10:31:04.722Z,11.83
2018-04-06T10:33:32.125Z,8.50
2018-04-06T10:35:59.541Z,7.43
2018-04-06T10:38:26.943Z,7.13
2018-04-06T10:40:54.373Z,10.67
2018-04-06T10:43:21.777Z,8.43
2018-04-06T10:45:49.197Z,7.33
2018-04-06T10:48:16.660Z,7.63
2018-04-06T10:50:44.067Z,11.60
2018-04-06T10:53:11.482Z,9.97
2018-04-06T10:55:38.888Z,5.03
2018-04-06T10:58:06.305Z,5.30
2018-04-06T11:00:33.697Z,6.53
2018-04-06T11:03:01.238Z,6.27
2018-04-06T11:05:28.659Z,7.47
2018-04-06T11:07:56.067Z,8.97
2018-04-06T11:10:23.490Z,18.83
2018-04-06T11:12:50.917Z,7.57
2018-04-06T11:15:18.413Z,9.43
2018-04-06T11:17:45.941Z,9.17
2018-04-06T11:20:13.409Z,10.37
2018-04-06T11:22:40.835Z,12.47
2018-04-06T11:25:08.864Z,8.57
2018-04-06T11:27:36.314Z,6.57
2018-04-06T11:30:03.800Z,12.00
2018-04-06T11:32:31.242Z,8.47
2018-04-06T11:34:58.676Z,12.93
2018-04-06T11:37:26.109Z,8.43
2018-04-06T11:39:53.620Z,7.87
2018-04-06T11:42:21.067Z,9.70
2018-04-06T11:44:49.293Z,7.13
2018-04-06T11:47:16.697Z,7.77
2018-04-06T11:49:44.132Z,9.90
2018-04-06T11:52:11.568Z,8.83
2018-04-06T11:54:39.032Z,6.73
2018-04-06T11:57:06.548Z,8.30
2018-04-06T11:59:33.989Z,9.50
2018-04-06T12:02:01.414Z,7.20
2018-04-06T12:04:29.958Z,8.53
2018-04-06T12:06:57.381Z,9.20
2018-04-06T12:09:24.788Z,6.30
2018-04-06T12:11:52.199Z,5.70
2018-04-06T12:14:19.600Z,6.90
2018-04-06T12:16:47.050Z,6.07
2018-04-06T12:19:14.529Z,5.43
2018-04-06T12:21:41.932Z,6.60
2018-04-06T12:24:09.492Z,6.03
2018-04-06T12:26:36.950Z,8.17
2018-04-06T12:29:04.369Z,6.57
2018-04-06T12:31:31.773Z,8.50
2018-04-06T12:33:59.210Z,6.50
2018-04-06T12:36:26.614Z,9.03
2018-04-06T12:38:54.269Z,4.53
2018-04-06T12:41:21.691Z,7.83
2018-04-06T12:43:49.281Z,6.77
2018-04-06T12:46:16.733Z,7.30
2018-04-06T12:48:44.651Z,5.63
2018-04-06T12:51:12.250Z,6.53
2018-04-06T12:53:39.739Z,4.40
2018-04-06T12:56:07.158Z,7.03
2018-04-06T12:58:34.578Z,4.10
2018-04-06T13:01:01.983Z,4.97
2018-04-06T13:03:29.489Z,6.90
2018-04-06T13:05:56.927Z,4.27
2018-04-06T13:08:24.322Z,3.50
2018-04-06T13:10:51.726Z,4.93
2018-04-06T13:13:19.142Z,4.23
2018-04-06T13:15:46.560Z,6.13
2018-04-06T13:18:13.956Z,7.20
2018-04-06T13:20:41.376Z,4.93
2018-04-06T13:23:08.770Z,9.77
2018-04-06T13:25:36.196Z,5.67
2018-04-06T13:28:03.590Z,6.80
2018-04-06T13:30:31.110Z,9.07
2018-04-06T13:32:58.505Z,7.33
2018-04-06T13:35:25.917Z,7.57
2018-04-06T13:37:53.350Z,8.83
2018-04-06T13:40:20.750Z,6.57
2018-04-06T13:42:48.175Z,6.30
2018-04-06T13:45:15.573Z,5.77
2018-04-06T13:47:43.002Z,7.47
2018-04-06T13:50:10.447Z,5.87
2018-04-06T13:52:37.942Z,5.97
2018-04-06T13:55:05.422Z,5.83
2018-04-06T13:57:32.938Z,7.87
2018-04-06T14:00:00.349Z,6.93
2018-04-06T14:02:27.767Z,8.50
2018-04-06T14:04:55.462Z,4.57
2018-04-06T14:07:23.000Z,6.30
2018-04-06T14:09:50.399Z,4.40
2018-04-06T14:12:17.793Z,5.93
2018-04-06T14:14:45.224Z,6.27
2018-04-06T14:17:12.638Z,7.80
2018-04-06T14:19:40.050Z,5.33
2018-04-06T14:22:07.482Z,6.90
2018-04-06T14:24:34.965Z,7.30
2018-04-06T14:27:02.370Z,4.70
2018-04-06T14:29:29.790Z,8.97
2018-04-06T14:31:57.206Z,10.77
2018-04-06T14:34:24.769Z,6.67
2018-04-06T14:36:52.161Z,8.47
2018-04-06T14:39:19.586Z,5.33
2018-04-06T14:41:46.999Z,6.37
2018-04-06T14:44:14.472Z,6.67
2018-04-06T14:46:41.905Z,5.43
2018-04-06T14:49:09.613Z,7.10
2018-04-06T14:51:37.086Z,4.83
2018-04-06T14:54:04.485Z,5.43
2018-04-06T14:56:31.908Z,4.77
2018-04-06T14:58:59.329Z,8.07
2018-04-06T15:01:26.750Z,5.90
2018-04-06T15:03:54.156Z,3.50
2018-04-06T15:06:21.606Z,6.40
2018-04-06T15:08:50.040Z,7.73
2018-04-06T15:11:17.585Z,5.67
2018-04-06T15:13:45.022Z,4.70
2018-04-06T15:16:12.453Z,3.33
2018-04-06T15:18:39.892Z,4.80
2018-04-06T15:21:07.869Z,9.93
2018-04-06T15:23:35.383Z,8.00
2018-04-06T15:26:02.901Z,5.03
2018-04-06T15:28:30.379Z,5.87
2018-04-06T15:30:57.815Z,5.73
2018-04-06T15:33:25.212Z,7.23
2018-04-06T15:35:52.621Z,6.90
2018-04-06T15:38:20.038Z,6.00
2018-04-06T15:40:47.582Z,6.17
2018-04-06T15:43:15.001Z,4.43
2018-04-06T15:45:42.408Z,6.43
2018-04-06T15:48:09.834Z,5.00
2018-04-06T15:50:37.287Z,5.17
2018-04-06T15:53:04.715Z,4.80
2018-04-06T15:55:32.120Z,4.20
2018-04-06T15:57:59.561Z,5.47
2018-04-06T16:00:26.957Z,5.13
2018-04-06T16:02:54.375Z,4.70
2018-04-06T16:05:21.773Z,4.53
2018-04-06T16:07:49.196Z,4.87
2018-04-06T16:10:16.620Z,8.43
2018-04-06T16:12:44.031Z,6.47
2018-04-06T16:15:11.438Z,4.70
2018-04-06T16:17:38.852Z,5.03
2018-04-06T16:20:06.257Z,6.70
2018-04-06T16:22:33.677Z,7.37
2018-04-06T16:25:01.084Z,8.00
2018-04-06T16:27:28.508Z,7.30
2018-04-06T16:29:55.901Z,5.53
2018-04-06T16:32:23.305Z,6.07
2018-04-06T16:34:50.806Z,6.73
2018-04-06T16:37:18.215Z,6.73
2018-04-06T16:39:45.626Z,6.70
2018-04-06T16:42:13.066Z,5.13
2018-04-06T16:44:40.445Z,5.43
2018-04-06T16:47:07.848Z,9.50
2018-04-06T16:49:35.261Z,7.27
2018-04-06T16:52:02.669Z,11.13
2018-04-06T16:54:30.085Z,7.50
2018-04-06T16:56:57.581Z,7.17
2018-04-06T16:59:25.001Z,7.47
2018-04-06T17:04:42.650Z,8.83
2018-04-06T17:07:10.060Z,7.70
2018-04-06T17:09:37.477Z,6.63
2018-04-06T17:12:04.885Z,10.93
2018-04-06T17:14:32.305Z,8.00
2018-04-06T17:16:59.709Z,10.50
2018-04-06T17:19:27.135Z,7.20
2018-04-06T17:21:54.564Z,8.63
2018-04-06T17:24:21.981Z,6.83
2018-04-06T17:26:49.385Z,9.33
2018-04-06T17:29:16.940Z,6.93
2018-04-06T17:31:44.334Z,7.10
2018-04-06T17:34:11.857Z,8.60
2018-04-06T17:36:39.266Z,7.27
2018-04-06T17:39:06.662Z,9.97
2018-04-06T17:41:34.078Z,6.60
2018-04-06T17:44:01.561Z,9.20
2018-04-06T17:46:28.974Z,6.10
2018-04-06T17:48:56.377Z,7.60
2018-04-06T17:51:23.793Z,5.83
2018-04-06T17:53:51.207Z,8.40
2018-04-06T17:56:18.622Z,6.77
2018-04-06T17:58:46.033Z,7.87
2018-04-06T18:01:13.444Z,8.23
2018-04-06T18:03:40.853Z,10.87
2018-04-06T18:06:08.278Z,9.50
2018-04-06T18:08:35.681Z,12.47
2018-04-06T18:11:03.085Z,7.77
2018-04-06T18:13:30.512Z,10.70
2018-04-06T18:15:57.925Z,7.97
2018-04-06T18:18:25.329Z,7.33
2018-04-06T18:20:52.755Z,10.17
2018-04-06T18:23:20.150Z,9.40
2018-04-06T18:25:47.601Z,6.30
2018-04-06T18:28:15.029Z,7.63
2018-04-06T18:30:42.437Z,8.53
2018-04-06T18:33:09.853Z,10.97
2018-04-06T18:35:37.258Z,13.80
2018-04-06T18:38:04.686Z,10.97
2018-04-06T18:40:32.087Z,8.90
2018-04-06T18:42:59.513Z,6.53
2018-04-06T18:45:26.913Z,9.03
2018-04-06T18:47:54.330Z,10.23
2018-04-06T18:50:21.754Z,9.80
2018-04-06T18:52:49.197Z,11.67
2018-04-06T18:55:16.593Z,8.13
2018-04-06T18:57:44.025Z,10.27
2018-04-06T19:00:11.425Z,9.30
2018-04-06T19:02:38.845Z,9.30
2018-04-06T19:05:06.250Z,9.17
2018-04-06T19:07:33.910Z,10.77
2018-04-06T19:10:01.325Z,14.83
2018-04-06T19:12:28.741Z,9.63
2018-04-06T19:14:56.150Z,8.73
2018-04-06T19:17:23.575Z,13.17
2018-04-06T19:19:50.977Z,13.07
2018-04-06T19:22:18.496Z,10.47
2018-04-06T19:24:45.901Z,9.97
2018-04-06T19:27:13.354Z,8.93
2018-04-06T19:29:40.984Z,20.23
2018-04-06T19:32:08.437Z,10.87
2018-04-06T19:34:35.927Z,10.50
2018-04-06T19:37:03.506Z,8.37
2018-04-06T19:39:30.908Z,7.43
2018-04-06T19:41:58.318Z,6.37
2018-04-06T19:44:25.720Z,10.77
2018-04-06T19:46:53.142Z,7.93
2018-04-06T19:49:20.548Z,9.93
2018-04-06T19:51:47.972Z,11.27
2018-04-06T19:54:15.402Z,9.33
2018-04-06T19:56:42.879Z,8.63
2018-04-06T19:59:10.283Z,13.27
2018-04-06T20:01:37.844Z,8.33
2018-04-06T20:04:05.247Z,11.40
2018-04-06T20:06:32.794Z,9.63
2018-04-06T20:09:00.257Z,9.13
2018-04-06T20:11:27.612Z,9.77
2018-04-06T20:13:55.033Z,12.20
2018-04-06T20:16:22.447Z,11.80
2018-04-06T20:18:49.946Z,10.37
2018-04-06T20:21:17.348Z,10.07
2018-04-06T20:23:44.810Z,11.50
2018-04-06T20:26:12.306Z,11.40
2018-04-06T20:28:39.750Z,8.27
2018-04-06T20:31:07.173Z,12.93
2018-04-06T20:33:34.590Z,9.17
2018-04-06T20:36:02.007Z,10.20
2018-04-06T20:38:29.431Z,15.33
2018-04-06T20:40:56.875Z,7.90
2018-04-06T20:43:24.332Z,7.67
2018-04-06T20:45:51.741Z,10.73
2018-04-06T20:48:19.197Z,9.37
2018-04-06T20:50:46.603Z,11.83
2018-04-06T20:53:14.022Z,10.50
2018-04-06T20:55:41.444Z,10.33
2018-04-06T20:58:08.865Z,9.20
2018-04-06T21:00:36.301Z,10.10
2018-04-06T21:03:03.706Z,7.37
2018-04-06T21:05:31.109Z,9.60
2018-04-06T21:07:58.528Z,9.93
2018-04-06T21:10:25.934Z,8.43
2018-04-06T21:12:53.364Z,10.60
2018-04-06T21:15:20.784Z,8.53
2018-04-06T21:17:48.195Z,7.53
2018-04-06T21:20:15.593Z,8.10
2018-04-06T21:22:43.437Z,11.00
2018-04-06T21:25:10.877Z,14.43
2018-04-06T21:27:38.294Z,9.20
2018-04-06T21:30:05.719Z,7.03
2018-04-06T21:32:33.138Z,7.07
2018-04-06T21:35:00.548Z,10.90
2018-04-06T21:37:28.241Z,8.87
2018-04-06T21:39:55.673Z,9.03
2018-04-06T21:42:23.085Z,10.03
2018-04-06T21:44:50.558Z,9.20
2018-04-06T21:47:18.066Z,10.27
2018-04-06T21:49:45.608Z,8.23
2018-04-06T21:52:13.307Z,11.37
2018-04-06T21:54:40.823Z,6.53
2018-04-06T21:57:08.278Z,11.13
2018-04-06T21:59:35.748Z,8.43
2018-04-06T22:02:03.170Z,6.47
2018-04-06T22:04:30.613Z,7.37
2018-04-06T22:06:58.019Z,6.00
2018-04-06T22:09:27.121Z,7.43
2018-04-06T22:11:54.542Z,7.93
2018-04-06T22:14:21.978Z,6.53
2018-04-06T22:16:49.384Z,6.77
2018-04-06T22:19:17.064Z,7.17
2018-04-06T22:21:44.501Z,5.30
2018-04-06T22:24:11.986Z,9.47
2018-04-06T22:26:39.445Z,5.23
2018-04-06T22:29:06.908Z,7.53
2018-04-06T22:31:34.379Z,10.97
2018-04-06T22:34:01.931Z,6.13
2018-04-06T22:36:29.364Z,6.33
2018-04-06T22:38:56.790Z,10.10
2018-04-06T22:41:24.195Z,5.60
2018-04-06T22:43:51.610Z,9.07
2018-04-06T22:46:19.009Z,7.30
2018-04-06T22:48:46.430Z,7.00
2018-04-06T22:51:13.848Z,10.03
2018-04-06T22:53:41.265Z,8.20
2018-04-06T22:56:08.673Z,9.43
2018-04-06T22:58:36.190Z,10.70
2018-04-06T23:01:03.704Z,9.00
2018-04-06T23:03:31.097Z,11.43
2018-04-06T23:05:58.581Z,11.50
2018-04-06T23:08:26.765Z,7.60
2018-04-06T23:10:54.214Z,9.53
2018-04-06T23:13:21.617Z,7.67
2018-04-06T23:15:49.045Z,11.03
2018-04-06T23:18:16.447Z,14.00
2018-04-06T23:20:44.786Z,7.17
2018-04-06T23:23:12.672Z,8.60
2018-04-06T23:25:40.886Z,9.13
2018-04-06T23:28:08.289Z,10.13
2018-04-06T23:30:35.790Z,5.77
2018-04-06T23:33:03.188Z,6.97
2018-04-06T23:35:30.665Z,7.47
2018-04-06T23:37:58.117Z,8.20
2018-04-06T23:40:25.516Z,5.87
2018-04-06T23:42:52.933Z,8.13
2018-04-06T23:45:20.342Z,6.93
2018-04-06T23:47:47.741Z,8.63
2018-04-06T23:50:15.182Z,10.43
2018-04-06T23:52:42.750Z,6.83
2018-04-06T23:55:10.155Z,9.57
2018-04-06T23:57:37.587Z,8.40
